Time;durP1;ratioP1;P1;durP2;ratioP2;P2;SDS_P1;SDS_P2;PMS_P1;PMS_P2;Temp;Humidity;BMP_temperature;BMP_pressure;BME280_temperature;BME280_humidity;BME280_pressure;Samples;Min_cycle;Max_cycle;Signal;HPM_P1;HPM_P2
2022/07/13 00:02:14;;;;;;;2.70;1.27;;;;;;;24.18;38.48;101594.62;1699305;84;21494;-49
2022/07/13 00:04:41;;;;;;;1.27;1.10;;;;;;;24.17;38.65;101590.23;1698130;83;21507;-49
2022/07/13 00:07:07;;;;;;;3.67;1.07;;;;;;;24.16;38.79;101584.56;1697721;84;21062;-49
2022/07/13 00:09:35;;;;;;;1.12;1.02;;;;;;;24.12;38.94;101576.41;1698033;83;20990;-48
2022/07/13 00:12:03;;;;;;;0.90;0.90;;;;;;;24.15;38.92;101581.52;1697845;84;21065;-51
2022/07/13 00:14:30;;;;;;;1.45;1.02;;;;;;;24.16;38.79;101581.91;1698068;84;21022;-48
2022/07/13 00:16:56;;;;;;;0.95;0.90;;;;;;;24.17;38.74;101586.75;1698553;84;21041;-49
2022/07/13 00:19:24;;;;;;;1.10;1.07;;;;;;;24.16;38.74;101581.91;1699814;84;21057;-49
2022/07/13 00:21:51;;;;;;;1.55;0.98;;;;;;;24.17;38.63;101578.77;1693805;84;21051;-50
2022/07/13 00:24:17;;;;;;;1.52;0.90;;;;;;;24.14;38.48;101576.30;1698252;83;21569;-49
2022/07/13 00:26:44;;;;;;;3.40;1.07;;;;;;;24.13;38.41;101578.09;1697744;84;21026;-48
2022/07/13 00:29:10;;;;;;;1.35;0.85;;;;;;;24.12;38.31;101577.73;1700219;83;21026;-48
2022/07/13 00:31:37;;;;;;;2.33;1.05;;;;;;;24.10;38.17;101578.31;1700966;84;21658;-49
2022/07/13 00:34:04;;;;;;;1.22;1.07;;;;;;;24.10;38.01;101580.98;1733233;81;21023;-48
2022/07/13 00:36:31;;;;;;;1.15;1.05;;;;;;;24.09;38.10;101576.59;1732158;81;20995;-48
2022/07/13 00:38:57;;;;;;;2.77;0.90;;;;;;;24.09;38.10;101576.59;1733628;82;21030;-51
2022/07/13 00:41:24;;;;;;;3.55;1.00;;;;;;;24.08;38.19;101570.91;1688220;84;21077;-48
2022/07/13 00:43:52;;;;;;;1.77;1.15;;;;;;;24.05;38.41;101573.76;1733260;81;21031;-50
2022/07/13 00:46:19;;;;;;;2.77;1.02;;;;;;;24.05;38.41;101573.76;1732028;81;21075;-48
2022/07/13 00:48:46;;;;;;;1.47;1.07;;;;;;;24.03;38.69;101567.69;1699840;84;21042;-48
2022/07/13 00:51:13;;;;;;;1.20;1.10;;;;;;;24.01;38.81;101572.22;1695816;82;21051;-50
2022/07/13 00:53:39;;;;;;;1.37;1.27;;;;;;;24.00;38.98;101568.34;1670313;84;21034;-50
2022/07/13 00:56:08;;;;;;;4.17;1.50;;;;;;;23.99;39.16;101568.80;1698110;84;21034;-49
2022/07/13 00:58:35;;;;;;;2.37;1.02;;;;;;;23.93;39.45;101567.88;1697393;84;21066;-50
2022/07/13 01:01:02;;;;;;;1.85;1.37;;;;;;;23.93;39.45;101567.88;1700035;84;21097;-48
2022/07/13 01:03:28;;;;;;;2.62;1.15;;;;;;;23.89;39.80;101555.73;1734460;81;21030;-50
2022/07/13 01:05:55;;;;;;;3.20;1.45;;;;;;;23.89;40.25;101557.06;1699675;84;21050;-50
2022/07/13 01:08:22;;;;;;;1.77;1.30;;;;;;;23.89;40.25;101557.06;1698427;84;21049;-51
2022/07/13 01:10:49;;;;;;;1.80;1.32;;;;;;;23.89;40.11;101548.23;1749713;81;21507;-48
2022/07/13 01:13:16;;;;;;;2.67;1.15;;;;;;;23.87;40.22;101552.78;1700758;84;21010;-48
2022/07/13 01:15:44;;;;;;;1.50;1.00;;;;;;;23.85;40.34;101548.91;1734130;81;21062;-49
2022/07/13 01:18:14;;;;;;;2.37;1.17;;;;;;;23.83;40.43;101548.16;1732480;81;21523;-53
2022/07/13 01:20:43;;;;;;;1.52;1.27;;;;;;;23.81;40.57;101542.09;1699113;83;21026;-48
2022/07/13 01:23:17;;;;;;;1.92;1.02;;;;;;;23.80;40.67;101543.02;1698110;84;21015;-49
2022/07/13 01:25:45;;;;;;;3.02;1.32;;;;;;;23.79;40.86;101539.14;1730398;81;21074;-51
2022/07/13 01:28:13;;;;;;;1.32;1.22;;;;;;;23.77;40.94;101535.27;1730318;81;21554;-49
2022/07/13 01:30:40;;;;;;;1.47;1.20;;;;;;;23.77;41.10;101527.29;1730467;81;21007;-49
2022/07/13 01:33:07;;;;;;;1.82;1.47;;;;;;;23.75;41.30;101523.02;1732910;81;21530;-49
2022/07/13 01:35:34;;;;;;;4.28;1.30;;;;;;;23.74;41.56;101522.16;1733660;81;21518;-48
2022/07/13 01:38:00;;;;;;;1.87;1.40;;;;;;;23.74;41.72;101524.81;1732185;81;21190;-50
2022/07/13 01:40:27;;;;;;;2.15;1.85;;;;;;;23.72;41.92;101521.41;1729856;82;21652;-49
2022/07/13 01:42:56;;;;;;;1.80;1.35;;;;;;;23.72;41.92;101521.41;1733743;81;21054;-53
2022/07/13 01:45:23;;;;;;;1.45;1.32;;;;;;;23.69;42.16;101509.66;1730807;81;21125;-50
2022/07/13 01:47:55;;;;;;;1.70;1.25;;;;;;;23.70;42.32;101520.65;1730385;81;21100;-50
2022/07/13 01:50:24;;;;;;;1.60;1.23;;;;;;;23.69;42.53;101520.29;1730428;81;21011;-50
2022/07/13 01:52:52;;;;;;;1.40;1.30;;;;;;;23.68;42.72;101519.06;1730826;81;21566;-49
2022/07/13 01:55:19;;;;;;;2.25;1.32;;;;;;;23.66;42.96;101507.69;1730329;81;21022;-49
2022/07/13 01:57:46;;;;;;;1.80;1.45;;;;;;;23.62;43.47;101503.02;1731622;81;21062;-50
2022/07/13 02:00:20;;;;;;;1.37;1.20;;;;;;;23.62;43.47;101503.02;1733808;81;21550;-49
2022/07/13 02:02:48;;;;;;;3.10;1.47;;;;;;;23.61;43.52;101504.45;1733569;81;21046;-51
2022/07/13 02:05:19;;;;;;;1.45;1.35;;;;;;;23.59;43.66;101501.91;1730268;81;21542;-49
2022/07/13 02:07:46;;;;;;;1.52;1.37;;;;;;;23.56;43.82;101507.39;1731796;81;21739;-48
2022/07/13 02:10:13;;;;;;;4.22;1.65;;;;;;;23.53;43.89;101512.92;1731153;82;21046;-50
2022/07/13 02:12:41;;;;;;;1.92;1.40;;;;;;;23.50;43.96;101505.13;1729552;81;21038;-49
2022/07/13 02:15:10;;;;;;;1.40;1.30;;;;;;;23.48;43.99;101507.03;1730474;81;21036;-49
2022/07/13 02:17:39;;;;;;;2.00;1.62;;;;;;;23.45;44.09;101508.08;1730973;81;21096;-49
2022/07/13 02:20:09;;;;;;;1.40;1.30;;;;;;;23.43;44.26;101509.14;1730926;81;21137;-49
2022/07/13 02:22:45;;;;;;;3.05;1.50;;;;;;;23.40;44.43;101507.53;1726507;82;21547;-49
2022/07/13 02:25:14;;;;;;;1.42;1.00;;;;;;;23.37;44.48;101496.22;1734392;81;21058;-49
2022/07/13 02:27:42;;;;;;;1.82;1.55;;;;;;;23.34;44.39;101501.74;1700846;84;21030;-49
2022/07/13 02:30:12;;;;;;;1.80;1.32;;;;;;;23.34;44.38;101505.73;1699694;84;20987;-54
2022/07/13 02:32:41;;;;;;;3.08;1.67;;;;;;;23.31;44.37;101503.22;1698138;84;20998;-49
2022/07/13 02:35:09;;;;;;;1.47;1.37;;;;;;;23.30;44.39;101500.20;1698291;84;21055;-49
2022/07/13 02:37:38;;;;;;;1.62;1.52;;;;;;;23.29;44.24;101501.13;1697549;84;21471;-53
2022/07/13 02:40:07;;;;;;;2.45;1.37;;;;;;;23.29;44.12;101498.47;1697981;84;21037;-49
2022/07/13 02:42:34;;;;;;;1.60;1.50;;;;;;;23.27;44.06;101495.92;1698734;83;21074;-49
2022/07/13 02:45:01;;;;;;;3.42;1.85;;;;;;;23.26;43.98;101501.34;1700295;83;21026;-51
2022/07/13 02:47:28;;;;;;;1.98;1.42;;;;;;;23.25;43.91;101498.29;1734495;81;21515;-49
2022/07/13 02:49:55;;;;;;;2.17;1.50;;;;;;;23.22;43.83;101499.83;1733076;81;21035;-50
2022/07/13 02:52:22;;;;;;;2.08;1.40;;;;;;;23.20;43.83;101497.74;1732347;81;21079;-48
2022/07/13 02:54:49;;;;;;;2.70;1.45;;;;;;;23.18;43.87;101495.66;1733886;81;21502;-52
2022/07/13 02:57:16;;;;;;;4.05;1.82;;;;;;;23.16;43.83;101496.23;1696208;84;20982;-49
2022/07/13 02:59:44;;;;;;;4.05;1.27;;;;;;;23.14;43.83;101494.14;1738302;81;21023;-49
2022/07/13 03:02:11;;;;;;;1.65;1.32;;;;;;;23.11;43.89;101486.36;1699160;84;21475;-48
2022/07/13 03:04:38;;;;;;;1.47;1.25;;;;;;;23.09;43.87;101490.91;1697804;84;21038;-49
2022/07/13 03:07:05;;;;;;;1.40;1.10;;;;;;;23.07;43.87;101492.80;1697472;83;21031;-48
2022/07/13 03:09:32;;;;;;;3.20;1.40;;;;;;;23.05;43.83;101489.39;1697657;83;21050;-49
2022/07/13 03:11:59;;;;;;;4.80;1.20;;;;;;;23.04;43.86;101493.02;1697177;83;20998;-50
2022/07/13 03:14:27;;;;;;;4.05;1.40;;;;;;;23.03;43.80;101497.92;1695277;83;21507;-48
2022/07/13 03:16:54;;;;;;;3.12;1.50;;;;;;;23.01;43.79;101495.84;1726536;81;21015;-51
2022/07/13 03:19:21;;;;;;;1.87;1.12;;;;;;;22.99;43.68;101493.75;1732415;81;21098;-49
2022/07/13 03:21:49;;;;;;;2.02;1.40;;;;;;;22.97;43.54;101495.65;1727278;82;21499;-49
2022/07/13 03:24:17;;;;;;;2.40;1.40;;;;;;;22.96;43.58;101496.11;1734659;81;20991;-50
2022/07/13 03:26:44;;;;;;;2.85;1.10;;;;;;;22.96;43.51;101492.59;1731456;81;21007;-50
2022/07/13 03:29:11;;;;;;;1.67;1.32;;;;;;;22.95;43.52;101486.93;1697789;83;21515;-49
2022/07/13 03:31:39;;;;;;;1.32;1.10;;;;;;;22.95;43.46;101489.58;1697684;84;21019;-50
2022/07/13 03:34:06;;;;;;;1.42;1.12;;;;;;;22.94;43.29;101484.73;1697247;83;21025;-50
2022/07/13 03:36:33;;;;;;;2.75;1.30;;;;;;;22.96;43.22;101483.31;1698566;83;21495;-49
2022/07/13 03:39:01;;;;;;;1.42;1.10;;;;;;;22.96;43.09;101490.80;1728207;81;21063;-48
2022/07/13 03:41:29;;;;;;;1.75;1.37;;;;;;;22.97;43.09;101482.38;1734618;81;21570;-49
2022/07/13 03:43:57;;;;;;;4.35;1.02;;;;;;;23.08;43.13;101478.59;1699458;82;21029;-50
2022/07/13 03:46:24;;;;;;;1.60;1.15;;;;;;;23.30;43.09;101479.81;1698090;83;21097;-50
2022/07/13 03:48:51;;;;;;;3.45;1.15;;;;;;;24.04;42.04;101485.66;1733704;81;21019;-52
2022/07/13 03:51:18;;;;;;;3.27;1.10;;;;;;;24.96;39.99;101483.78;1696737;84;21025;-51
2022/07/13 03:53:45;;;;;;;1.80;1.00;;;;;;;26.57;36.91;101478.47;1704135;84;21065;-50
2022/07/13 03:56:12;;;;;;;2.02;1.02;;;;;;;26.57;36.91;101478.47;1697798;84;21041;-52
2022/07/13 03:58:38;;;;;;;3.12;1.05;;;;;;;27.46;35.17;101473.23;1697663;84;21026;-50
2022/07/13 04:01:07;;;;;;;1.67;0.85;;;;;;;28.37;33.53;101483.89;1697795;84;21050;-48
2022/07/13 04:03:33;;;;;;;2.90;0.82;;;;;;;29.24;31.94;101477.25;1698937;84;21066;-51
2022/07/13 04:06:01;;;;;;;6.92;1.10;;;;;;;29.99;30.50;101477.56;1700908;84;21475;-55
2022/07/13 04:08:28;;;;;;;2.85;1.10;;;;;;;30.47;29.31;101480.63;1700997;84;21022;-53
2022/07/13 04:10:56;;;;;;;1.12;0.90;;;;;;;30.67;28.56;101477.40;1730562;81;21066;-51
2022/07/13 04:13:24;;;;;;;2.17;1.42;;;;;;;30.78;28.02;101481.76;1696497;84;20951;-51
2022/07/13 04:15:52;;;;;;;3.35;1.00;;;;;;;30.59;27.87;101473.73;1704203;83;21019;-49
2022/07/13 04:18:18;;;;;;;5.05;1.22;;;;;;;30.36;27.86;101471.37;1697827;84;21082;-50
2022/07/13 04:20:47;;;;;;;1.72;1.00;;;;;;;29.47;28.82;101476.06;1690474;84;21004;-51
2022/07/13 04:23:14;;;;;;;1.80;0.93;;;;;;;28.95;29.44;101481.12;1700664;84;21553;-49
2022/07/13 04:25:41;;;;;;;1.27;0.98;;;;;;;28.57;29.71;101484.41;1732040;81;21018;-52
2022/07/13 04:28:08;;;;;;;1.85;0.95;;;;;;;28.17;30.05;101487.41;1731823;81;21511;-51
2022/07/13 04:30:35;;;;;;;2.40;0.90;;;;;;;27.80;30.41;101483.38;1721638;82;21023;-50
2022/07/13 04:33:02;;;;;;;3.95;1.40;;;;;;;27.49;30.96;101484.16;1700721;84;21542;-48
2022/07/13 04:35:30;;;;;;;2.85;1.00;;;;;;;27.22;31.42;101482.67;1700650;84;21038;-49
2022/07/13 04:37:57;;;;;;;4.40;1.30;;;;;;;26.99;31.43;101481.00;1732552;81;21023;-48
2022/07/13 04:40:24;;;;;;;1.47;1.00;;;;;;;26.77;31.64;101483.63;1731675;81;21054;-50
2022/07/13 04:42:51;;;;;;;1.52;0.90;;;;;;;26.62;31.80;101479.46;1731655;81;21051;-48
2022/07/13 04:45:19;;;;;;;2.87;1.10;;;;;;;26.47;32.02;101475.29;1731463;81;21471;-52
2022/07/13 04:47:48;;;;;;;3.17;1.12;;;;;;;26.31;32.12;101478.29;1731564;81;21078;-49
2022/07/13 04:50:16;;;;;;;2.22;1.05;;;;;;;26.17;32.28;101475.78;1728618;81;21090;-54
2022/07/13 04:52:43;;;;;;;3.27;1.15;;;;;;;26.03;32.43;101473.78;1730244;82;21530;-52
2022/07/13 04:55:10;;;;;;;2.65;1.20;;;;;;;25.93;32.46;101476.73;1736398;81;21019;-49
2022/07/13 04:57:37;;;;;;;1.15;1.05;;;;;;;25.86;32.64;101468.84;1699663;84;21503;-49
2022/07/13 05:00:07;;;;;;;3.10;1.30;;;;;;;25.80;32.78;101472.31;1697769;84;21490;-51
2022/07/13 05:02:34;;;;;;;3.22;1.22;;;;;;;25.76;32.94;101471.35;1698070;84;20998;-49
2022/07/13 05:05:00;;;;;;;1.60;1.05;;;;;;;25.73;33.13;101472.42;1697764;84;21026;-49
2022/07/13 05:07:28;;;;;;;1.47;0.95;;;;;;;25.70;33.06;101467.30;1726575;82;21047;-49
2022/07/13 05:09:57;;;;;;;1.47;1.12;;;;;;;25.68;33.22;101467.89;1727784;81;21074;-49
2022/07/13 05:12:24;;;;;;;1.62;0.90;;;;;;;25.72;33.39;101469.84;1693764;84;21022;-50
2022/07/13 05:14:53;;;;;;;3.25;1.10;;;;;;;25.80;33.32;101462.98;1697737;84;21046;-52
2022/07/13 05:17:20;;;;;;;1.25;0.80;;;;;;;25.97;33.26;101462.21;1696593;84;21045;-49
2022/07/13 05:19:47;;;;;;;2.10;0.90;;;;;;;26.21;33.02;101466.62;1697773;84;21022;-52
2022/07/13 05:22:15;;;;;;;3.50;1.15;;;;;;;26.57;32.56;101463.80;1699673;84;21054;-51
2022/07/13 05:24:43;;;;;;;2.70;1.17;;;;;;;26.97;32.07;101464.72;1701270;84;21494;-49
2022/07/13 05:27:12;;;;;;;1.67;0.70;;;;;;;27.37;31.18;101465.45;1734697;81;21035;-49
2022/07/13 05:29:40;;;;;;;6.00;1.15;;;;;;;27.76;30.42;101467.22;1700870;84;20998;-50
2022/07/13 05:32:08;;;;;;;1.32;0.90;;;;;;;28.11;29.74;101469.16;1698384;84;21062;-52
2022/07/13 05:34:35;;;;;;;3.25;0.93;;;;;;;28.34;29.32;101476.11;1698374;84;20995;-51
2022/07/13 05:37:03;;;;;;;4.25;1.10;;;;;;;28.53;28.86;101468.22;1697594;84;21042;-51
2022/07/13 05:39:30;;;;;;;2.05;1.10;;;;;;;28.63;28.74;101463.80;1697985;84;21021;-49
2022/07/13 05:41:58;;;;;;;5.10;1.47;;;;;;;28.70;28.85;101466.81;1698183;83;21074;-51
2022/07/13 05:44:24;;;;;;;3.77;0.98;;;;;;;28.75;28.56;101460.06;1700088;84;21034;-50
2022/07/13 05:46:52;;;;;;;4.92;1.27;;;;;;;28.80;28.45;101459.19;1735761;81;21527;-50
2022/07/13 05:49:19;;;;;;;1.62;0.70;;;;;;;28.86;27.96;101454.63;1699712;84;21050;-51
2022/07/13 05:51:46;;;;;;;1.05;0.80;;;;;;;28.94;27.72;101457.48;1697756;83;21522;-48
2022/07/13 05:54:13;;;;;;;2.25;1.00;;;;;;;29.02;27.14;101448.77;1735485;81;21054;-53
2022/07/13 05:56:39;;;;;;;7.62;1.10;;;;;;;29.09;27.14;101454.44;1736266;82;21554;-51
2022/07/13 05:59:06;;;;;;;6.65;1.10;;;;;;;29.12;27.13;101454.19;1736504;81;21035;-49
2022/07/13 06:01:33;;;;;;;6.67;1.40;;;;;;;29.14;27.39;101452.22;1735123;81;21015;-52
2022/07/13 06:04:00;;;;;;;4.00;1.10;;;;;;;29.19;27.30;101454.02;1733483;81;21026;-50
2022/07/13 06:06:26;;;;;;;3.27;1.42;;;;;;;29.25;27.48;101450.78;1732830;81;21015;-55
2022/07/13 06:08:53;;;;;;;9.40;1.52;;;;;;;29.37;27.88;101453.71;1733663;81;21031;-50
2022/07/13 06:11:21;;;;;;;2.17;1.20;;;;;;;29.49;27.86;101458.00;1731264;81;21495;-49
2022/07/13 06:13:48;;;;;;;3.00;1.17;;;;;;;29.66;27.95;101459.98;1733505;81;21070;-51
2022/07/13 06:16:15;;;;;;;6.97;1.10;;;;;;;29.84;27.03;101450.33;1702946;84;21034;-49
2022/07/13 06:18:41;;;;;;;2.52;1.02;;;;;;;30.04;27.11;101445.80;1701563;84;21006;-50
2022/07/13 06:21:08;;;;;;;3.30;0.90;;;;;;;30.25;26.55;101445.98;1736141;81;20983;-53
2022/07/13 06:23:35;;;;;;;2.12;0.90;;;;;;;30.50;26.42;101446.75;1699448;84;21011;-49
2022/07/13 06:26:02;;;;;;;5.47;1.07;;;;;;;30.78;25.94;101446.83;1697617;83;20994;-52
2022/07/13 06:28:29;;;;;;;0.65;0.65;;;;;;;31.05;25.49;101448.25;1697728;83;21018;-51
2022/07/13 06:30:56;;;;;;;2.72;1.22;;;;;;;31.32;24.69;101442.88;1698193;83;21030;-54
2022/07/13 06:33:23;;;;;;;3.77;0.90;;;;;;;31.54;24.10;101450.55;1697756;84;21029;-54
2022/07/13 06:35:49;;;;;;;0.70;0.70;;;;;;;31.67;23.85;101447.01;1699099;83;21049;-51
2022/07/13 06:38:16;;;;;;;0.88;0.50;;;;;;;31.72;23.32;101446.52;1736376;81;21097;-50
2022/07/13 06:40:43;;;;;;;1.87;0.62;;;;;;;31.71;23.11;101448.39;1732114;82;21079;-51
2022/07/13 06:43:09;;;;;;;1.50;0.80;;;;;;;31.68;24.03;101452.72;1736610;81;21059;-50
2022/07/13 06:45:37;;;;;;;4.90;1.02;;;;;;;31.63;25.95;101457.73;1736489;81;21086;-49
2022/07/13 06:48:04;;;;;;;0.82;0.50;;;;;;;31.56;26.34;101457.97;1698488;84;21041;-53
2022/07/13 06:50:32;;;;;;;2.90;0.70;;;;;;;31.49;25.17;101458.22;1697184;83;21015;-53
2022/07/13 06:52:58;;;;;;;2.33;0.78;;;;;;;31.40;23.71;101459.14;1698311;83;21015;-50
2022/07/13 06:55:25;;;;;;;0.95;0.45;;;;;;;31.32;22.98;101460.36;1697551;84;21065;-50
2022/07/13 06:57:52;;;;;;;0.65;0.50;;;;;;;31.25;22.47;101455.22;1697718;83;21031;-51
2022/07/13 07:00:19;;;;;;;3.25;0.53;;;;;;;31.18;22.24;101452.80;1700463;83;21106;-51
2022/07/13 07:02:47;;;;;;;2.40;0.70;;;;;;;31.11;22.51;101454.37;1700488;84;20998;-50
2022/07/13 07:05:14;;;;;;;1.65;0.75;;;;;;;31.08;22.48;101449.28;1733774;81;20999;-51
2022/07/13 07:07:43;;;;;;;1.72;0.40;;;;;;;31.07;22.46;101444.91;1731859;81;21071;-53
2022/07/13 07:10:10;;;;;;;0.40;0.40;;;;;;;31.10;21.92;101448.14;1732753;82;21035;-52
2022/07/13 07:12:38;;;;;;;0.80;0.72;;;;;;;31.12;21.89;101446.15;1729704;81;20971;-51
2022/07/13 07:15:07;;;;;;;0.55;0.50;;;;;;;31.14;23.62;101450.87;1731435;81;20984;-49
2022/07/13 07:17:33;;;;;;;2.30;0.57;;;;;;;31.13;23.69;101453.72;1732154;81;21492;-51
2022/07/13 07:20:03;;;;;;;2.83;0.72;;;;;;;31.13;22.66;101445.66;1748276;80;21039;-50
2022/07/13 07:22:29;;;;;;;0.57;0.57;;;;;;;31.14;22.21;101443.34;1728580;81;21038;-51
2022/07/13 07:24:56;;;;;;;1.02;0.50;;;;;;;31.18;22.05;101450.11;1733524;81;21012;-52
2022/07/13 07:27:23;;;;;;;1.12;0.60;;;;;;;31.25;21.96;101441.28;1732321;81;21503;-53
2022/07/13 07:29:50;;;;;;;1.75;0.45;;;;;;;31.35;21.57;101438.53;1731137;81;21066;-50
2022/07/13 07:32:17;;;;;;;0.70;0.42;;;;;;;31.48;21.11;101444.44;1731402;81;21034;-50
2022/07/13 07:34:44;;;;;;;0.50;0.50;;;;;;;31.59;20.94;101445.58;1731587;81;20999;-53
2022/07/13 07:37:10;;;;;;;0.98;0.50;;;;;;;31.67;20.73;101442.12;1733154;81;22236;-49
2022/07/13 07:39:38;;;;;;;1.32;0.70;;;;;;;31.72;20.81;101446.52;1730113;82;21035;-52
2022/07/13 07:42:05;;;;;;;0.42;0.40;;;;;;;31.75;20.80;101443.05;1692151;84;21089;-51
2022/07/13 07:44:33;;;;;;;0.45;0.37;;;;;;;31.76;20.92;101448.77;1697147;84;21066;-52
2022/07/13 07:46:59;;;;;;;0.60;0.47;;;;;;;31.78;20.86;101448.11;1699955;84;21038;-51
2022/07/13 07:49:26;;;;;;;1.22;0.28;;;;;;;31.79;20.62;101432.32;1700665;84;21010;-49
2022/07/13 07:51:53;;;;;;;0.47;0.47;;;;;;;31.79;20.52;101444.44;1730454;82;21016;-51
2022/07/13 07:54:20;;;;;;;1.98;0.40;;;;;;;31.79;20.60;101443.09;1728640;81;21690;-51
2022/07/13 07:56:48;;;;;;;0.40;0.40;;;;;;;31.78;20.86;101454.84;1731585;81;21027;-50
2022/07/13 07:59:15;;;;;;;0.50;0.20;;;;;;;31.76;20.83;101454.14;1731180;81;21512;-54
2022/07/13 08:01:42;;;;;;;0.65;0.35;;;;;;;31.74;20.36;101448.06;1732332;81;20999;-51
2022/07/13 08:04:09;;;;;;;1.15;0.50;;;;;;;31.66;20.40;101441.27;1734721;81;20980;-51
2022/07/13 08:06:38;;;;;;;2.30;0.57;;;;;;;31.62;20.36;101444.41;1735026;81;21015;-53
2022/07/13 08:09:05;;;;;;;0.45;0.30;;;;;;;31.59;20.41;101434.81;1696323;84;21089;-50
2022/07/13 08:11:32;;;;;;;0.82;0.40;;;;;;;31.57;20.52;101442.20;1700964;82;21026;-49
2022/07/13 08:13:58;;;;;;;1.50;0.53;;;;;;;31.56;20.58;101443.66;1701637;84;21014;-52
2022/07/13 08:16:25;;;;;;;1.50;0.78;;;;;;;31.56;20.40;101441.83;1704120;83;21474;-54
2022/07/13 08:18:52;;;;;;;1.27;0.55;;;;;;;31.57;20.25;101435.47;1697139;83;20998;-50
2022/07/13 08:21:19;;;;;;;0.40;0.30;;;;;;;31.57;20.25;101432.78;1697953;84;21022;-52
2022/07/13 08:23:52;;;;;;;1.55;0.40;;;;;;;31.59;20.34;101429.92;1697821;83;21490;-49
2022/07/13 08:26:29;;;;;;;0.57;0.40;;;;;;;31.59;20.47;101425.40;1697793;83;21519;-52
2022/07/13 08:28:58;;;;;;;0.70;0.50;;;;;;;31.59;20.59;101432.62;1698142;83;20971;-50
2022/07/13 08:31:24;;;;;;;2.05;0.50;;;;;;;31.57;20.52;101426.05;1699921;83;21081;-50
2022/07/13 08:39:24;;;;;;;0.45;0.40;;;;;;;31.44;20.34;101423.36;1728211;81;21027;-52
2022/07/13 08:41:50;;;;;;;1.77;0.78;;;;;;;31.39;20.45;101418.44;1696756;84;21494;-53
2022/07/13 08:44:18;;;;;;;2.27;0.40;;;;;;;31.40;20.23;101419.29;1696183;84;21069;-50
2022/07/13 08:46:45;;;;;;;1.30;0.40;;;;;;;31.43;20.02;101417.66;1732904;81;20995;-50
2022/07/13 08:49:12;;;;;;;0.55;0.40;;;;;;;31.47;20.01;101411.80;1728530;81;21023;-50
2022/07/13 08:51:39;;;;;;;0.80;0.50;;;;;;;31.50;20.05;101411.50;1730616;81;21543;-53
2022/07/13 08:54:06;;;;;;;2.05;0.30;;;;;;;31.56;20.03;101404.17;1733998;81;21011;-49
2022/07/13 08:56:33;;;;;;;0.40;0.40;;;;;;;31.61;19.71;101396.50;1695265;84;21018;-50
2022/07/13 08:59:00;;;;;;;0.40;0.30;;;;;;;31.67;19.89;101397.72;1697850;84;21077;-51
2022/07/13 09:01:27;;;;;;;1.65;0.40;;;;;;;31.71;19.64;101397.27;1697688;84;21006;-50
2022/07/13 09:03:53;;;;;;;0.93;0.33;;;;;;;31.76;19.36;101397.62;1699207;83;21074;-52
2022/07/13 09:06:43;;;;;;;1.95;0.50;;;;;;;31.82;19.25;101394.32;1699495;84;21085;-49
2022/07/13 09:09:26;;;;;;;1.60;0.40;;;;;;;31.87;19.46;101389.83;1736971;81;21074;-50
2022/07/13 09:11:55;;;;;;;1.45;0.40;;;;;;;31.91;19.31;101396.59;1697377;84;20979;-52
2022/07/13 09:14:25;;;;;;;0.88;0.50;;;;;;;31.95;20.76;101388.08;1746092;81;21007;-49
2022/07/13 09:16:52;;;;;;;0.68;0.50;;;;;;;32.00;23.69;101395.20;1701781;84;21069;-49
2022/07/13 09:19:25;;;;;;;1.75;0.78;;;;;;;32.02;25.07;101401.28;1734129;81;21078;-51
2022/07/13 09:21:52;;;;;;;2.67;0.90;;;;;;;32.03;26.41;101382.77;1732317;81;21058;-54
2022/07/13 09:24:19;;;;;;;2.52;0.40;;;;;;;32.01;24.76;101390.64;1704337;82;21027;-51
2022/07/13 09:26:46;;;;;;;0.70;0.42;;;;;;;32.01;23.80;101388.80;1731018;81;21020;-49
2022/07/13 09:29:14;;;;;;;0.60;0.47;;;;;;;32.00;25.83;101388.97;1731676;81;21555;-51
2022/07/13 09:31:55;;;;;;;1.50;0.47;;;;;;;31.98;26.65;101389.09;1731672;81;21067;-54
2022/07/13 09:34:25;;;;;;;2.67;0.60;;;;;;;31.93;27.50;101383.36;1727396;81;21003;-52
2022/07/13 09:37:11;;;;;;;2.65;0.95;;;;;;;31.88;27.65;101374.86;1671430;84;21038;-55
2022/07/13 09:40:02;;;;;;;1.20;0.60;;;;;;;31.81;27.31;101376.50;1696936;84;20970;-51
2022/07/13 09:42:30;;;;;;;0.65;0.60;;;;;;;31.74;28.01;101378.10;1704263;84;20994;-52
2022/07/13 09:47:49;;;;;;;2.42;0.65;;;;;;;31.62;28.44;101370.41;1697147;84;21049;-50
2022/07/13 09:50:17;;;;;;;2.95;0.90;;;;;;;31.53;27.58;101365.45;1731441;81;21047;-49
2022/07/13 09:52:46;;;;;;;1.17;0.50;;;;;;;31.45;28.20;101366.72;1732716;81;21551;-50
2022/07/13 09:55:16;;;;;;;1.50;0.57;;;;;;;31.38;28.23;101372.34;1694824;84;20990;-51
2022/07/13 09:57:58;;;;;;;0.78;0.60;;;;;;;31.31;28.42;101373.94;1735282;81;21070;-50
2022/07/13 10:00:24;;;;;;;2.30;0.70;;;;;;;31.24;29.22;101369.66;1734860;81;21468;-51
2022/07/13 10:02:52;;;;;;;3.45;0.60;;;;;;;31.17;28.98;101360.53;1732981;81;21023;-49
2022/07/13 10:05:19;;;;;;;1.67;0.47;;;;;;;31.11;28.99;101365.66;1732189;81;21503;-51
2022/07/13 10:07:47;;;;;;;1.02;0.50;;;;;;;31.05;29.63;101368.95;1736827;81;21023;-52
2022/07/13 10:10:16;;;;;;;1.07;0.62;;;;;;;31.02;29.49;101366.55;1696650;84;21022;-55
2022/07/13 10:12:43;;;;;;;1.82;0.57;;;;;;;30.99;29.50;101361.48;1703993;84;20991;-49
2022/07/13 10:15:12;;;;;;;2.85;0.78;;;;;;;30.95;29.65;101364.12;1697544;83;21494;-50
2022/07/13 10:17:40;;;;;;;1.95;0.60;;;;;;;30.94;30.09;101358.39;1688189;83;21033;-49
2022/07/13 10:20:11;;;;;;;0.80;0.37;;;;;;;30.91;30.04;101354.19;1730231;82;21034;-50
2022/07/13 10:22:42;;;;;;;1.45;0.50;;;;;;;30.92;30.28;101367.09;1695103;84;21057;-50
2022/07/13 10:25:10;;;;;;;3.30;0.93;;;;;;;30.90;30.20;101354.31;1693548;84;21571;-51
2022/07/13 10:27:38;;;;;;;3.52;0.70;;;;;;;30.88;30.21;101357.64;1691497;84;21104;-49
2022/07/13 10:30:19;;;;;;;0.95;0.57;;;;;;;30.86;30.32;101355.60;1690433;84;21006;-48
2022/07/13 10:32:47;;;;;;;0.60;0.60;;;;;;;30.83;30.75;101349.98;1650998;84;21121;-49
2022/07/13 10:35:20;;;;;;;1.37;0.60;;;;;;;30.83;30.55;101348.64;1650262;86;21010;-51
2022/07/13 10:38:02;;;;;;;1.12;0.60;;;;;;;30.84;31.15;101349.50;1650628;86;21093;-50
2022/07/13 10:40:33;;;;;;;1.98;0.85;;;;;;;30.84;31.21;101346.81;1650131;86;21105;-50
2022/07/13 10:43:06;;;;;;;1.50;0.60;;;;;;;30.83;31.22;101340.59;1650357;86;21148;-49
2022/07/13 10:45:38;;;;;;;5.75;0.80;;;;;;;30.82;30.94;101348.80;1650739;86;21049;-51
2022/07/13 10:48:25;;;;;;;2.42;0.80;;;;;;;30.80;31.02;101341.39;1579953;90;21129;-49
2022/07/13 10:50:57;;;;;;;1.40;0.70;;;;;;;30.78;30.94;101337.52;1576785;90;21153;-50
2022/07/13 10:53:46;;;;;;;4.87;1.12;;;;;;;30.79;31.79;101338.37;1576963;90;21064;-48
2022/07/13 10:56:19;;;;;;;3.62;1.70;;;;;;;30.79;31.33;101338.37;1576182;90;21576;-51
2022/07/13 10:58:47;;;;;;;3.42;1.32;;;;;;;30.79;30.62;101326.28;1576745;90;21084;-51
2022/07/13 11:01:40;;;;;;;1.62;1.27;;;;;;;30.81;31.10;101335.03;1578615;90;21028;-50
2022/07/13 11:04:07;;;;;;;1.55;1.32;;;;;;;30.81;31.40;101328.32;1574312;90;21120;-50
2022/07/13 11:06:36;;;;;;;2.72;0.95;;;;;;;30.81;31.06;101328.32;1578402;90;21117;-48
2022/07/13 11:09:19;;;;;;;0.70;0.70;;;;;;;30.82;30.89;101323.28;1578622;90;21088;-53
2022/07/13 11:11:53;;;;;;;3.60;0.85;;;;;;;30.83;30.82;101320.95;1558362;91;21593;-50
2022/07/13 11:14:46;;;;;;;3.98;1.60;;;;;;;30.85;31.03;101321.68;1559010;91;21686;-50
2022/07/13 11:17:16;;;;;;;3.08;0.88;;;;;;;30.87;31.22;101322.38;1544372;93;21040;-50
2022/07/13 11:19:53;;;;;;;2.92;0.90;;;;;;;30.87;30.43;101311.63;1569120;90;21096;-51
2022/07/13 11:25:41;;;;;;;2.42;0.62;;;;;;;30.82;30.31;101319.25;1623762;84;21075;-51
2022/07/13 11:28:26;;;;;;;1.02;0.80;;;;;;;30.78;30.77;101316.52;1689369;83;21094;-50
2022/07/13 11:30:54;;;;;;;5.45;0.70;;;;;;;30.73;30.43;101317.48;1694824;83;21492;-50
2022/07/13 11:33:21;;;;;;;3.80;0.60;;;;;;;30.66;30.73;101315.88;1688661;83;21524;-50
2022/07/13 11:35:48;;;;;;;1.65;0.70;;;;;;;30.57;30.79;101313.22;1688810;83;21023;-51
2022/07/13 11:38:16;;;;;;;3.40;0.72;;;;;;;30.48;30.46;101303.71;1685113;83;21527;-55
2022/07/13 11:40:44;;;;;;;8.70;1.10;;;;;;;30.45;31.36;101309.88;1687558;84;21518;-50
2022/07/13 11:43:12;;;;;;;5.00;1.05;;;;;;;30.45;31.84;101304.52;1691525;84;21023;-49